Flight Track Log - Related Links

Times and Time Zones

All times are in EDT time to prevent confusion due to time zone crossing. See the UAL4180 flight status page for this flight to view local times or setup timezone preferences in your user account.

Time Position Orientation Groundspeed Altitude Reporting Facility
EDT Latitude Longitude Course Direction KTS MPH feet Rate Location/Type
Fri 09:21:41 AM 41.9500 -87.9000 194° South 161 185 1,800  Level Chicago TRACON
Fri 09:22:41 AM 41.9000 -87.9167 194° South 194 223 4,200 2,296 Climbing Chicago TRACON
Fri 09:23:02 AM 41.8728 -87.9219 188° South 194 223 4,900 867 Climbing Chicago Center
Fri 09:24:04 AM 41.8061 -87.9375 190° South 227 261 5,400 1,597 Climbing Chicago Center
Fri 09:25:06 AM 41.7364 -87.9294 175° South 248 285 8,200 2,661 Climbing Chicago Center
Fri 09:26:08 AM 41.6636 -87.9175 173° South 260 299 10,900 2,274 Climbing Chicago Center
Fri 09:27:10 AM 41.5881 -87.9058 173° South 271 312 12,900 1,403 Climbing Chicago Center
Fri 09:28:12 AM 41.5031 -87.9183 186° South 305 351 13,800 1,113 Climbing Chicago Center
Fri 09:29:14 AM 41.4106 -87.9322 186° South 325 374 15,200 1,561 Climbing Chicago Center
Fri 09:30:15 AM 41.3167 -87.9442 185° South 330 380 17,000 2,341 Climbing Chicago Center
Fri 09:31:17 AM 41.2108 -87.9417 179° South 317 365 20,000 2,468 Climbing Chicago Center
Fri 09:32:19 AM 41.1264 -87.9372 178° South 307 353 22,100 2,081 Climbing Chicago Center
Fri 09:33:21 AM 41.0478 -87.9322 177° South 288 331 24,300 2,081 Climbing Chicago Center
Fri 09:34:23 AM 40.9750 -87.9278 177° South 269 310 26,400 1,645 Climbing Chicago Center
Fri 09:35:25 AM 40.9042 -87.9244 178° South 257 296 27,700 1,258 Climbing Chicago Center
Fri 09:36:27 AM 40.8306 -87.9194 177° South 263 303 29,000 1,355 Climbing Chicago Center
Fri 09:37:29 AM 40.7442 -87.9161 178° South 261 300 30,500 1,210 Climbing Chicago Center
Fri 09:38:31 AM 40.6683 -87.9114 177° South 273 314 31,500 968 Climbing Chicago Center
Fri 09:39:33 AM 40.5897 -87.9025 175° South 281 323 32,500 726 Climbing Chicago Center
Fri 09:40:35 AM 40.5069 -87.8839 170° South 300 345 33,000 242 Climbing Chicago Center
Fri 09:41:37 AM 40.4186 -87.8656 171° South 320 368 33,000  Level Chicago Center
Fri 09:42:15 AM 40.3575 -87.8525 171° South 318 366 33,000  Level Indianapolis Center
Fri 09:43:17 AM 40.2603 -87.8303 170° South 337 388 33,000  Level Indianapolis Center
Fri 09:44:19 AM 40.1617 -87.8097 171° South 349 402 33,000  Level Indianapolis Center
Fri 09:45:20 AM 40.0422 -87.7872 172° South 358 412 33,000  Level Indianapolis Center
Fri 09:46:22 AM 39.9419 -87.7661 171° South 362 417 33,000  Level Indianapolis Center
Fri 09:47:24 AM 39.8425 -87.7481 172° South 361 415 33,000  Level Indianapolis Center
Fri 09:48:26 AM 39.7447 -87.7264 170° South 358 412 33,000  Level Indianapolis Center
Fri 09:49:29 AM 39.6461 -87.7056 171° South 357 411 33,000  Level Indianapolis Center
Fri 09:50:31 AM 39.5475 -87.6856 171° South 357 411 33,000  Level Indianapolis Center
Fri 09:51:33 AM 39.4492 -87.6672 172° South 356 410 33,000  Level Indianapolis Center
Fri 09:52:35 AM 39.3317 -87.6431 171° South 355 409 33,000  Level Indianapolis Center
Fri 09:53:37 AM 39.2358 -87.6236 171° South 349 402 33,000  Level Indianapolis Center
Fri 09:54:39 AM 39.1389 -87.6036 171° South 352 405 33,000 -339 Level Indianapolis Center
Fri 09:55:41 AM 39.0425 -87.5856 172° South 351 404 32,300 -1,065 Descending Indianapolis Center
Fri 09:56:43 AM 38.9469 -87.5647 170° South 350 403 30,800 -1,113 Descending Indianapolis Center
Fri 09:57:45 AM 38.8508 -87.5472 172° South 348 400 30,000 -387 Descending Indianapolis Center
Fri 09:58:47 AM 38.7556 -87.5275 171° South 346 398 30,000  Level Indianapolis Center
Fri 09:59:49 AM 38.6422 -87.5053 171° South 344 396 30,000  Level Indianapolis Center
Fri 10:00:51 AM 38.5475 -87.4864 171° South 344 396 30,000  Level Indianapolis Center
Fri 10:01:53 AM 38.4533 -87.4678 171° South 344 396 30,000  Level Indianapolis Center
Fri 10:02:55 AM 38.3597 -87.4489 171° South 343 395 30,000  Level Indianapolis Center
Fri 10:03:57 AM 38.2661 -87.4319 172° South 341 392 30,000  Level Indianapolis Center
Fri 10:04:59 AM 38.1722 -87.4142 172° South 342 394 30,000 -435 Level Indianapolis Center
Fri 10:06:01 AM 38.0575 -87.3911 171° South 348 400 29,100 -1,258 Descending Indianapolis Center
Fri 10:07:03 AM 37.9594 -87.3714 171° South 353 406 27,400 -1,694 Descending Indianapolis Center
Fri 10:08:05 AM 37.8608 -87.3519 171° South 356 410 25,600 -1,694 Descending Indianapolis Center
Fri 10:09:07 AM 37.7636 -87.3339 172° South 355 409 23,900 -1,258 Descending Indianapolis Center
Fri 10:10:09 AM 37.6658 -87.3161 172° South 355 409 23,000 -435 Descending Indianapolis Center
Fri 10:11:11 AM 37.5703 -87.2964 171° South 349 402 23,000  Level Indianapolis Center
Fri 10:11:29 AM 37.5253 -87.2922 176° South 350 403 23,000  Level Memphis Center
Fri 10:12:29 AM 37.4311 -87.2750 172° South 356 410 23,000  Level Memphis Center
Fri 10:13:29 AM 37.3408 -87.2525 169° South 344 396 23,000  Level Memphis Center
Fri 10:14:16 AM 37.2675 -87.2344 169° South 339 390 23,000  Level Memphis Center
Fri 10:14:47 AM 37.2214 -87.2208 167° South 340 391 23,000 -986 Level Memphis Center
Fri 10:15:29 AM 37.1564 -87.2000 166° South 335 386 21,800 -1,900 Descending Memphis Center
Fri 10:15:47 AM 37.1247 -87.1908 167° South 340 391 21,100 -2,200 Descending Memphis Center
Fri 10:16:29 AM 37.0661 -87.1747 168° South 335 386 19,600 -1,967 Descending Memphis Center
Fri 10:16:48 AM 37.0408 -87.1681 168° South 330 380 19,100 -1,900 Descending Memphis Center
Fri 10:17:29 AM 36.9758 -87.1472 166° South 335 386 17,700 -1,869 Descending Memphis Center
Fri 10:17:49 AM 36.9442 -87.1381 167° South 334 384 17,200 -1,600 Descending Memphis Center
Fri 10:18:29 AM 36.8875 -87.1222 167° South 335 386 16,100 -1,600 Descending Memphis Center
Fri 10:18:49 AM 36.8644 -87.1156 167° South 313 360 15,600 -1,700 Descending Memphis Center
Fri 10:19:29 AM 36.8139 -87.0967 163° South 320 368 14,400 -1,800 Descending Memphis Center
Fri 10:20:29 AM 36.7336 -87.0508 155° Southeast 320 368 12,600 -1,650 Descending Memphis Center
Fri 10:21:29 AM 36.6572 -87.0022 153° Southeast 313 360 11,100 -1,550 Descending Memphis Center
Fri 10:22:29 AM 36.5936 -86.9611 153° Southeast 281 323 9,500 -1,500 Descending Memphis Center
Fri 10:23:29 AM 36.5681 -86.8639 108° East 273 314 8,100 -1,500 Descending Memphis Center
Fri 10:24:29 AM 36.5461 -86.7539 104° East 288 331 6,500 -1,050 Descending Memphis Center
Fri 10:25:29 AM 36.5244 -86.6567 105° East 294 338 6,000 -250 Descending Memphis Center
Fri 10:26:29 AM 36.4611 -86.6311 162° South 226 260 6,000 -800 Level Memphis Center
Fri 10:27:29 AM 36.3942 -86.6214 173° South 226 260 4,400 -1,600 Descending Memphis Center
Fri 10:28:29 AM 36.3231 -86.6169 177° South 244 281 2,800 -950 Descending Memphis Center
Fri 10:29:29 AM 36.2672 -86.6272 188° South 245 282 2,500 -300 Descending Memphis Center
Fri 10:30:29 AM 36.2158 -86.6500 200° South 218 251 2,200 -600 Descending Memphis Center
Fri 10:31:29 AM 36.1744 -86.6647 196° South 177 204 1,300 -800 Descending Memphis Center
Fri 10:32:29 AM 36.1394 -86.6767 195° South 140 161 600 3,850 Descending Memphis Center
Fri 10:33:29 AM 36.0961 -86.6939 198° South 140 161 9,000 8,400 Climbing Memphis Center
Fri 10:35:00 AM 36.1167 -86.6667 90° East  Level FlightAware Approximate
Fri 10:42:00 AM 36.1245 -86.6782 90° East  Level Estimated
Fri 10:43:00 AM 36.1245 -86.6782 90° East  Level Estimated
Fri 10:44:00 AM 36.1245 -86.6782 90° East  Level Estimated
Fri 10:45:00 AM 36.1245 -86.6782 90° East  Level Estimated
Fri 10:46:00 AM 36.1245 -86.6782 90° East  Level Estimated
Fri 10:47:00 AM 36.1245 -86.6782 90° East  Level Estimated
Fri 10:48:00 AM 36.1245 -86.6782 90° East  Level Estimated

Login

Don't have an account? Register now (free) for customized features, flight alerts, and more!